sensor_id;sensor_type;location;lat;lon;timestamp;pressure;altitude;pressure_sealevel;temperature;humidity
60061;BME280;45933;51.336;12.612;2023-01-31T00:01:15;99975.53;;;5.20;63.87
60061;BME280;45933;51.336;12.612;2023-01-31T00:03:41;99985.00;;;5.18;63.59
60061;BME280;45933;51.336;12.612;2023-01-31T00:06:19;99995.28;;;5.15;64.15
60061;BME280;45933;51.336;12.612;2023-01-31T00:08:47;99980.63;;;5.13;64.22
60061;BME280;45933;51.336;12.612;2023-01-31T00:11:14;99973.66;;;5.09;64.45
60061;BME280;45933;51.336;12.612;2023-01-31T00:13:43;99972.06;;;5.17;64.33
60061;BME280;45933;51.336;12.612;2023-01-31T00:16:10;99980.56;;;5.11;64.00
60061;BME280;45933;51.336;12.612;2023-01-31T00:18:36;99986.66;;;5.13;64.26
60061;BME280;45933;51.336;12.612;2023-01-31T00:21:10;99987.59;;;5.21;63.95
60061;BME280;45933;51.336;12.612;2023-01-31T00:23:37;99991.03;;;5.19;64.10
60061;BME280;45933;51.336;12.612;2023-01-31T00:26:25;99996.34;;;5.30;63.50
60061;BME280;45933;51.336;12.612;2023-01-31T00:28:53;100002.31;;;5.25;63.67
60061;BME280;45933;51.336;12.612;2023-01-31T00:31:19;99999.72;;;5.22;63.83
60061;BME280;45933;51.336;12.612;2023-01-31T00:33:46;100007.41;;;5.19;63.31
60061;BME280;45933;51.336;12.612;2023-01-31T00:36:14;100001.34;;;5.17;62.78
60061;BME280;45933;51.336;12.612;2023-01-31T00:38:40;100006.47;;;5.16;62.53
60061;BME280;45933;51.336;12.612;2023-01-31T00:41:07;100002.16;;;5.15;62.82
60061;BME280;45933;51.336;12.612;2023-01-31T00:43:32;100003.09;;;5.18;62.26
60061;BME280;45933;51.336;12.612;2023-01-31T00:45:58;100005.53;;;5.11;62.27
60061;BME280;45933;51.336;12.612;2023-01-31T00:48:23;100005.50;;;5.06;62.47
60061;BME280;45933;51.336;12.612;2023-01-31T00:50:48;100010.63;;;5.05;62.46
60061;BME280;45933;51.336;12.612;2023-01-31T00:53:14;100005.38;;;5.00;62.75
60061;BME280;45933;51.336;12.612;2023-01-31T00:55:40;100014.88;;;5.01;62.60
60061;BME280;45933;51.336;12.612;2023-01-31T00:58:05;100012.22;;;4.96;62.50
60061;BME280;45933;51.336;12.612;2023-01-31T01:00:31;100017.41;;;4.98;62.31
60061;BME280;45933;51.336;12.612;2023-01-31T01:02:56;100018.19;;;4.94;62.47
60061;BME280;45933;51.336;12.612;2023-01-31T01:05:21;100011.28;;;4.91;62.31
60061;BME280;45933;51.336;12.612;2023-01-31T01:07:47;100002.63;;;4.89;62.04
60061;BME280;45933;51.336;12.612;2023-01-31T01:10:12;100006.94;;;4.89;62.00
60061;BME280;45933;51.336;12.612;2023-01-31T01:12:37;100012.06;;;4.86;61.95
60061;BME280;45933;51.336;12.612;2023-01-31T01:15:03;100020.59;;;4.80;62.21
60061;BME280;45933;51.336;12.612;2023-01-31T01:17:29;100023.94;;;4.76;62.12
60061;BME280;45933;51.336;12.612;2023-01-31T01:19:54;100032.47;;;4.70;62.04
60061;BME280;45933;51.336;12.612;2023-01-31T01:22:19;100040.25;;;4.73;61.71
60061;BME280;45933;51.336;12.612;2023-01-31T01:24:45;100054.78;;;4.67;61.82
60061;BME280;45933;51.336;12.612;2023-01-31T01:27:11;100044.34;;;4.61;61.86
60061;BME280;45933;51.336;12.612;2023-01-31T01:29:42;100049.41;;;4.56;61.66
60061;BME280;45933;51.336;12.612;2023-01-31T01:32:07;100055.44;;;4.57;61.64
60061;BME280;45933;51.336;12.612;2023-01-31T01:34:34;100043.38;;;4.54;61.73
60061;BME280;45933;51.336;12.612;2023-01-31T01:36:59;100051.97;;;4.55;61.99
60061;BME280;45933;51.336;12.612;2023-01-31T01:39:25;100051.06;;;4.53;61.93
60061;BME280;45933;51.336;12.612;2023-01-31T01:41:54;100053.59;;;4.50;61.98
60061;BME280;45933;51.336;12.612;2023-01-31T01:44:41;100051.13;;;4.56;62.08
60061;BME280;45933;51.336;12.612;2023-01-31T01:47:21;100061.53;;;4.59;62.17
60061;BME280;45933;51.336;12.612;2023-01-31T01:50:40;100064.91;;;4.56;62.32
60061;BME280;45933;51.336;12.612;2023-01-31T01:52:47;100072.66;;;4.56;62.18
60061;BME280;45933;51.336;12.612;2023-01-31T01:57:49;100070.06;;;4.56;62.20
60061;BME280;45933;51.336;12.612;2023-01-31T02:00:20;100081.34;;;4.61;62.12
60061;BME280;45933;51.336;12.612;2023-01-31T02:02:46;100088.22;;;4.59;62.11
60061;BME280;45933;51.336;12.612;2023-01-31T02:05:18;100092.63;;;4.66;62.05
60061;BME280;45933;51.336;12.612;2023-01-31T02:07:44;100079.63;;;4.62;62.01
60061;BME280;45933;51.336;12.612;2023-01-31T02:10:18;100084.00;;;4.64;62.02
60061;BME280;45933;51.336;12.612;2023-01-31T02:12:45;100083.16;;;4.67;61.84
60061;BME280;45933;51.336;12.612;2023-01-31T02:15:11;100083.09;;;4.62;62.20
60061;BME280;45933;51.336;12.612;2023-01-31T02:17:36;100083.16;;;4.67;62.03
60061;BME280;45933;51.336;12.612;2023-01-31T02:26:00;100067.75;;;4.71;62.41
60061;BME280;45933;51.336;12.612;2023-01-31T02:34:08;100087.56;;;4.71;62.63
60061;BME280;45933;51.336;12.612;2023-01-31T02:39:34;100095.34;;;4.74;62.84
60061;BME280;45933;51.336;12.612;2023-01-31T02:42:19;100108.22;;;4.72;63.19
60061;BME280;45933;51.336;12.612;2023-01-31T02:44:55;100109.97;;;4.73;63.07
60061;BME280;45933;51.336;12.612;2023-01-31T02:47:58;100109.84;;;4.67;63.72
60061;BME280;45933;51.336;12.612;2023-01-31T02:53:05;100123.47;;;4.59;63.22
60061;BME280;45933;51.336;12.612;2023-01-31T02:55:43;100126.22;;;4.68;63.07
60061;BME280;45933;51.336;12.612;2023-01-31T02:58:35;100130.59;;;4.72;62.97
60061;BME280;45933;51.336;12.612;2023-01-31T03:01:02;100143.44;;;4.69;63.00
60061;BME280;45933;51.336;12.612;2023-01-31T03:03:31;100146.03;;;4.69;62.69
60061;BME280;45933;51.336;12.612;2023-01-31T03:08:37;100156.31;;;4.66;62.45
60061;BME280;45933;51.336;12.612;2023-01-31T03:11:05;100168.50;;;4.73;62.15
60061;BME280;45933;51.336;12.612;2023-01-31T03:13:46;100167.63;;;4.72;62.19
60061;BME280;45933;51.336;12.612;2023-01-31T03:16:31;100171.25;;;4.81;62.16
60061;BME280;45933;51.336;12.612;2023-01-31T03:19:25;100194.38;;;4.75;61.92
60061;BME280;45933;51.336;12.612;2023-01-31T03:21:56;100169.47;;;4.80;61.73
60061;BME280;45933;51.336;12.612;2023-01-31T03:24:26;100183.13;;;4.72;61.70
60061;BME280;45933;51.336;12.612;2023-01-31T03:26:56;100181.41;;;4.73;62.10
60061;BME280;45933;51.336;12.612;2023-01-31T03:29:24;100178.06;;;4.79;61.99
60061;BME280;45933;51.336;12.612;2023-01-31T03:31:57;100174.63;;;4.80;61.80
60061;BME280;45933;51.336;12.612;2023-01-31T03:34:25;100178.03;;;4.76;62.09
60061;BME280;45933;51.336;12.612;2023-01-31T03:37:14;100179.00;;;4.81;62.02
60061;BME280;45933;51.336;12.612;2023-01-31T03:42:25;100180.66;;;4.79;62.16
60061;BME280;45933;51.336;12.612;2023-01-31T03:45:05;100186.81;;;4.85;62.09
60061;BME280;45933;51.336;12.612;2023-01-31T03:47:40;100180.81;;;4.86;62.08
60061;BME280;45933;51.336;12.612;2023-01-31T03:50:20;100176.50;;;4.87;61.90
60061;BME280;45933;51.336;12.612;2023-01-31T03:52:57;100179.81;;;4.80;62.15
60061;BME280;45933;51.336;12.612;2023-01-31T03:55:33;100182.44;;;4.81;62.16
60061;BME280;45933;51.336;12.612;2023-01-31T03:58:01;100179.00;;;4.81;62.06
60061;BME280;45933;51.336;12.612;2023-01-31T04:00:27;100172.09;;;4.81;62.29
60061;BME280;45933;51.336;12.612;2023-01-31T04:02:59;100167.72;;;4.79;62.25
60061;BME280;45933;51.336;12.612;2023-01-31T04:05:30;100166.88;;;4.80;61.94
60061;BME280;45933;51.336;12.612;2023-01-31T04:07:57;100172.94;;;4.80;61.93
60061;BME280;45933;51.336;12.612;2023-01-31T04:10:23;100188.38;;;4.77;61.89
60061;BME280;45933;51.336;12.612;2023-01-31T04:12:50;100181.41;;;4.73;62.21
60061;BME280;45933;51.336;12.612;2023-01-31T04:15:15;100189.16;;;4.73;62.12
60061;BME280;45933;51.336;12.612;2023-01-31T04:17:40;100194.28;;;4.70;62.20
60061;BME280;45933;51.336;12.612;2023-01-31T04:20:07;100182.19;;;4.69;62.50
60061;BME280;45933;51.336;12.612;2023-01-31T04:22:33;100193.41;;;4.69;62.46
60061;BME280;45933;51.336;12.612;2023-01-31T04:24:59;100193.44;;;4.71;62.34
60061;BME280;45933;51.336;12.612;2023-01-31T04:27:24;100197.66;;;4.67;62.46
60061;BME280;45933;51.336;12.612;2023-01-31T04:29:49;100191.53;;;4.62;62.43
60061;BME280;45933;51.336;12.612;2023-01-31T04:32:15;100207.03;;;4.64;62.60
60061;BME280;45933;51.336;12.612;2023-01-31T04:34:40;100204.38;;;4.59;62.92
60061;BME280;45933;51.336;12.612;2023-01-31T04:37:05;100198.41;;;4.63;62.72
60061;BME280;45933;51.336;12.612;2023-01-31T04:39:31;100214.75;;;4.62;62.67
60061;BME280;45933;51.336;12.612;2023-01-31T04:41:56;100217.34;;;4.64;62.99
60061;BME280;45933;51.336;12.612;2023-01-31T04:44:21;100207.84;;;4.60;63.53
60061;BME280;45933;51.336;12.612;2023-01-31T04:46:47;100219.06;;;4.62;63.42
60061;BME280;45933;51.336;12.612;2023-01-31T04:49:12;100219.72;;;4.53;63.97
60061;BME280;45933;51.336;12.612;2023-01-31T04:51:38;100220.66;;;4.57;64.00
60061;BME280;45933;51.336;12.612;2023-01-31T04:54:03;100221.53;;;4.57;63.92
60061;BME280;45933;51.336;12.612;2023-01-31T04:56:29;100223.34;;;4.61;63.28
60061;BME280;45933;51.336;12.612;2023-01-31T04:58:56;100228.41;;;4.57;64.18
60061;BME280;45933;51.336;12.612;2023-01-31T05:01:21;100226.69;;;4.56;64.52
60061;BME280;45933;51.336;12.612;2023-01-31T05:03:46;100230.06;;;4.53;64.42
60061;BME280;45933;51.336;12.612;2023-01-31T05:06:11;100225.72;;;4.52;64.38
60061;BME280;45933;51.336;12.612;2023-01-31T05:08:37;100229.19;;;4.53;64.74
60061;BME280;45933;51.336;12.612;2023-01-31T05:11:04;100229.97;;;4.49;65.03
60061;BME280;45933;51.336;12.612;2023-01-31T05:13:33;100221.50;;;4.54;64.42
60061;BME280;45933;51.336;12.612;2023-01-31T05:16:08;100222.34;;;4.55;64.67
60061;BME280;45933;51.336;12.612;2023-01-31T05:18:35;100218.09;;;4.57;64.36
60061;BME280;45933;51.336;12.612;2023-01-31T05:21:01;100217.19;;;4.55;64.58
60061;BME280;45933;51.336;12.612;2023-01-31T05:23:27;100215.28;;;4.46;64.94
60061;BME280;45933;51.336;12.612;2023-01-31T05:25:53;100227.44;;;4.52;64.70
60061;BME280;45933;51.336;12.612;2023-01-31T05:28:18;100236.75;;;4.43;65.01
60061;BME280;45933;51.336;12.612;2023-01-31T05:30:44;100218.00;;;4.52;64.85
60061;BME280;45933;51.336;12.612;2023-01-31T05:33:09;100229.78;;;4.39;65.15
60061;BME280;45933;51.336;12.612;2023-01-31T05:35:34;100232.41;;;4.42;65.29
60061;BME280;45933;51.336;12.612;2023-01-31T05:38:00;100230.78;;;4.46;64.53
60061;BME280;45933;51.336;12.612;2023-01-31T05:40:25;100230.84;;;4.49;64.44
60061;BME280;45933;51.336;12.612;2023-01-31T05:42:55;100233.31;;;4.43;65.16
60061;BME280;45933;51.336;12.612;2023-01-31T05:45:20;100233.31;;;4.43;64.94
60061;BME280;45933;51.336;12.612;2023-01-31T05:47:46;100233.16;;;4.37;64.94
60061;BME280;45933;51.336;12.612;2023-01-31T05:50:12;100238.50;;;4.44;64.83
60061;BME280;45933;51.336;12.612;2023-01-31T05:52:38;100246.91;;;4.36;65.24
60061;BME280;45933;51.336;12.612;2023-01-31T05:55:04;100232.38;;;4.41;64.99
60061;BME280;45933;51.336;12.612;2023-01-31T05:57:29;100237.53;;;4.41;64.67
60061;BME280;45933;51.336;12.612;2023-01-31T05:59:55;100224.63;;;4.41;64.56
60061;BME280;45933;51.336;12.612;2023-01-31T06:02:20;100246.16;;;4.41;64.65
60061;BME280;45933;51.336;12.612;2023-01-31T06:04:45;100239.22;;;4.39;64.90
60061;BME280;45933;51.336;12.612;2023-01-31T06:07:11;100240.94;;;4.38;64.83
60061;BME280;45933;51.336;12.612;2023-01-31T06:09:36;100234.81;;;4.33;64.59
60061;BME280;45933;51.336;12.612;2023-01-31T06:12:03;100241.63;;;4.31;64.83
60061;BME280;45933;51.336;12.612;2023-01-31T06:14:29;100233.88;;;4.30;64.93
60061;BME280;45933;51.336;12.612;2023-01-31T06:16:54;100239.91;;;4.32;64.77
60061;BME280;45933;51.336;12.612;2023-01-31T06:19:19;100238.03;;;4.25;65.26
60061;BME280;45933;51.336;12.612;2023-01-31T06:21:49;100242.56;;;4.33;64.96
60061;BME280;45933;51.336;12.612;2023-01-31T06:24:14;100239.91;;;4.32;64.82
60061;BME280;45933;51.336;12.612;2023-01-31T06:26:40;100248.47;;;4.29;65.10
60061;BME280;45933;51.336;12.612;2023-01-31T06:29:05;100251.91;;;4.28;65.16
60061;BME280;45933;51.336;12.612;2023-01-31T06:31:30;100252.06;;;4.36;64.65
60061;BME280;45933;51.336;12.612;2023-01-31T06:33:56;100246.03;;;4.35;64.57
60061;BME280;45933;51.336;12.612;2023-01-31T06:36:21;100250.22;;;4.30;65.05
60061;BME280;45933;51.336;12.612;2023-01-31T06:38:51;100252.09;;;4.37;64.89
60061;BME280;45933;51.336;12.612;2023-01-31T06:41:19;100266.81;;;4.41;65.07
60061;BME280;45933;51.336;12.612;2023-01-31T06:43:45;100264.28;;;4.43;65.02
60061;BME280;45933;51.336;12.612;2023-01-31T06:46:10;100255.56;;;4.38;65.38
60061;BME280;45933;51.336;12.612;2023-01-31T06:48:35;100260.78;;;4.41;65.17
60061;BME280;45933;51.336;12.612;2023-01-31T06:51:01;100260.84;;;4.44;65.17
60061;BME280;45933;51.336;12.612;2023-01-31T06:53:26;100262.63;;;4.46;64.75
60061;BME280;45933;51.336;12.612;2023-01-31T06:55:51;100263.47;;;4.45;64.67
60061;BME280;45933;51.336;12.612;2023-01-31T06:58:17;100265.97;;;4.42;65.20
60061;BME280;45933;51.336;12.612;2023-01-31T07:00:42;100275.50;;;4.45;64.61
60061;BME280;45933;51.336;12.612;2023-01-31T07:03:08;100276.34;;;4.44;64.56
60061;BME280;45933;51.336;12.612;2023-01-31T07:05:33;100277.97;;;4.40;64.59
60061;BME280;45933;51.336;12.612;2023-01-31T07:07:58;100277.25;;;4.47;64.50
60061;BME280;45933;51.336;12.612;2023-01-31T07:10:24;100287.53;;;4.44;64.51
60061;BME280;45933;51.336;12.612;2023-01-31T07:12:49;100298.84;;;4.50;64.07
60061;BME280;45933;51.336;12.612;2023-01-31T07:15:14;100288.56;;;4.53;63.71
60061;BME280;45933;51.336;12.612;2023-01-31T07:17:39;100292.91;;;4.54;63.70
60061;BME280;45933;51.336;12.612;2023-01-31T07:20:05;100275.72;;;4.56;63.61
60061;BME280;45933;51.336;12.612;2023-01-31T07:22:31;100280.88;;;4.54;63.17
60061;BME280;45933;51.336;12.612;2023-01-31T07:24:56;100280.16;;;4.61;63.20
60061;BME280;45933;51.336;12.612;2023-01-31T07:27:22;100280.22;;;4.64;62.90
60061;BME280;45933;51.336;12.612;2023-01-31T07:29:48;100274.09;;;4.59;62.92
60061;BME280;45933;51.336;12.612;2023-01-31T07:32:13;100273.38;;;4.66;62.36
60061;BME280;45933;51.336;12.612;2023-01-31T07:34:39;100262.19;;;4.67;62.37
60061;BME280;45933;51.336;12.612;2023-01-31T07:37:05;100261.31;;;4.65;62.30
60061;BME280;45933;51.336;12.612;2023-01-31T07:39:30;100262.28;;;4.70;61.80
60061;BME280;45933;51.336;12.612;2023-01-31T07:41:55;100257.97;;;4.69;61.44
60061;BME280;45933;51.336;12.612;2023-01-31T07:44:21;100255.31;;;4.66;61.50
60061;BME280;45933;51.336;12.612;2023-01-31T07:46:46;100260.66;;;4.76;61.27
60061;BME280;45933;51.336;12.612;2023-01-31T07:49:12;100264.97;;;4.77;60.75
60061;BME280;45933;51.336;12.612;2023-01-31T07:51:37;100255.59;;;4.80;60.86
60061;BME280;45933;51.336;12.612;2023-01-31T07:54:04;100259.75;;;4.73;60.71
60061;BME280;45933;51.336;12.612;2023-01-31T07:56:29;100276.09;;;4.72;60.29
60061;BME280;45933;51.336;12.612;2023-01-31T07:58:54;100270.19;;;4.80;60.43
60061;BME280;45933;51.336;12.612;2023-01-31T08:01:22;100271.09;;;4.80;60.20
60061;BME280;45933;51.336;12.612;2023-01-31T08:04:27;100268.44;;;4.77;60.12
60061;BME280;45933;51.336;12.612;2023-01-31T08:06:53;100277.91;;;4.77;59.78
60061;BME280;45933;51.336;12.612;2023-01-31T08:09:20;100272.72;;;4.77;60.44
60061;BME280;45933;51.336;12.612;2023-01-31T08:11:45;100275.34;;;4.78;60.25
60061;BME280;45933;51.336;12.612;2023-01-31T08:14:10;100273.59;;;4.77;60.53
60061;BME280;45933;51.336;12.612;2023-01-31T08:16:36;100280.81;;;4.92;60.62
60061;BME280;45933;51.336;12.612;2023-01-31T08:19:02;100267.28;;;5.05;60.78
60061;BME280;45933;51.336;12.612;2023-01-31T08:21:28;100259.03;;;5.23;60.03
60061;BME280;45933;51.336;12.612;2023-01-31T08:23:53;100260.22;;;5.42;59.40
60061;BME280;45933;51.336;12.612;2023-01-31T08:26:20;100259.50;;;5.50;59.24
60061;BME280;45933;51.336;12.612;2023-01-31T08:28:46;100260.47;;;5.57;58.49
60061;BME280;45933;51.336;12.612;2023-01-31T08:31:15;100267.38;;;5.57;58.91
60061;BME280;45933;51.336;12.612;2023-01-31T08:33:41;100244.88;;;5.53;58.32
60061;BME280;45933;51.336;12.612;2023-01-31T08:36:17;100236.50;;;5.66;58.64
60061;BME280;45933;51.336;12.612;2023-01-31T08:38:46;100226.16;;;5.64;58.79
60061;BME280;45933;51.336;12.612;2023-01-31T08:41:15;100226.88;;;5.57;58.18
60061;BME280;45933;51.336;12.612;2023-01-31T08:43:42;100232.03;;;5.56;58.60
60061;BME280;45933;51.336;12.612;2023-01-31T08:46:07;100231.16;;;5.57;58.59
60061;BME280;45933;51.336;12.612;2023-01-31T08:48:34;100224.19;;;5.51;58.52
60061;BME280;45933;51.336;12.612;2023-01-31T08:51:04;100234.69;;;5.60;58.93
60061;BME280;45933;51.336;12.612;2023-01-31T08:53:30;100233.38;;;5.35;58.18
60061;BME280;45933;51.336;12.612;2023-01-31T08:56:00;100223.22;;;5.46;58.64
60061;BME280;45933;51.336;12.612;2023-01-31T08:58:26;100219.84;;;5.48;58.57
60061;BME280;45933;51.336;12.612;2023-01-31T09:00:52;100219.69;;;5.41;58.62
60061;BME280;45933;51.336;12.612;2023-01-31T09:03:17;100218.81;;;5.39;58.78
60061;BME280;45933;51.336;12.612;2023-01-31T09:05:43;100223.22;;;5.44;58.69
60061;BME280;45933;51.336;12.612;2023-01-31T09:08:09;100219.63;;;5.38;58.88
60061;BME280;45933;51.336;12.612;2023-01-31T09:10:35;100216.22;;;5.39;58.86
60061;BME280;45933;51.336;12.612;2023-01-31T09:13:01;100206.66;;;5.33;59.20
60061;BME280;45933;51.336;12.612;2023-01-31T09:15:26;100208.31;;;5.30;58.79
60061;BME280;45933;51.336;12.612;2023-01-31T09:17:52;100201.44;;;5.32;59.12
60061;BME280;45933;51.336;12.612;2023-01-31T09:20:17;100195.47;;;5.36;58.92
60061;BME280;45933;51.336;12.612;2023-01-31T09:22:43;100192.84;;;5.33;59.07
60061;BME280;45933;51.336;12.612;2023-01-31T09:25:08;100198.94;;;5.38;58.89
60061;BME280;45933;51.336;12.612;2023-01-31T09:27:35;100197.78;;;5.20;58.54
60061;BME280;45933;51.336;12.612;2023-01-31T09:30:02;100190.28;;;5.33;58.70
60061;BME280;45933;51.336;12.612;2023-01-31T09:32:28;100191.00;;;5.27;58.71
60061;BME280;45933;51.336;12.612;2023-01-31T09:34:54;100180.66;;;5.27;58.39
60061;BME280;45933;51.336;12.612;2023-01-31T09:37:20;100198.03;;;5.33;58.37
60061;BME280;45933;51.336;12.612;2023-01-31T09:39:45;100195.56;;;5.40;58.26
60061;BME280;45933;51.336;12.612;2023-01-31T09:42:18;100207.59;;;5.38;58.29
60061;BME280;45933;51.336;12.612;2023-01-31T09:45:03;100192.22;;;5.46;58.37
60061;BME280;45933;51.336;12.612;2023-01-31T09:47:38;100205.22;;;5.50;58.06
60061;BME280;45933;51.336;12.612;2023-01-31T09:50:22;100206.16;;;5.56;58.16
60061;BME280;45933;51.336;12.612;2023-01-31T09:52:55;100194.81;;;5.47;57.57
60061;BME280;45933;51.336;12.612;2023-01-31T09:55:56;100198.41;;;5.57;57.91
60061;BME280;45933;51.336;12.612;2023-01-31T10:01:01;100189.78;;;5.55;57.87
60061;BME280;45933;51.336;12.612;2023-01-31T10:03:31;100180.38;;;5.60;57.56
60061;BME280;45933;51.336;12.612;2023-01-31T10:06:20;100173.50;;;5.62;57.82
60061;BME280;45933;51.336;12.612;2023-01-31T10:09:04;100170.97;;;5.65;57.63
60061;BME280;45933;51.336;12.612;2023-01-31T10:11:39;100176.22;;;5.70;57.31
60061;BME280;45933;51.336;12.612;2023-01-31T10:16:41;100174.63;;;5.80;57.50
60061;BME280;45933;51.336;12.612;2023-01-31T10:19:27;100165.13;;;5.77;57.15
60061;BME280;45933;51.336;12.612;2023-01-31T10:22:01;100162.59;;;5.80;57.34
60061;BME280;45933;51.336;12.612;2023-01-31T10:24:32;100159.25;;;5.89;57.54
60061;BME280;45933;51.336;12.612;2023-01-31T10:27:04;100165.97;;;5.76;56.78
60061;BME280;45933;51.336;12.612;2023-01-31T10:29:46;100164.28;;;5.80;56.79
60061;BME280;45933;51.336;12.612;2023-01-31T10:32:23;100161.84;;;5.90;57.06
60061;BME280;45933;51.336;12.612;2023-01-31T10:35:12;100175.75;;;5.95;56.66
60061;BME280;45933;51.336;12.612;2023-01-31T10:37:48;100166.31;;;5.96;56.75
60061;BME280;45933;51.336;12.612;2023-01-31T10:40:20;100152.47;;;5.95;56.57
60061;BME280;45933;51.336;12.612;2023-01-31T10:42:52;100150.81;;;5.99;56.52
60061;BME280;45933;51.336;12.612;2023-01-31T10:45:25;100135.28;;;5.97;56.44
60061;BME280;45933;51.336;12.612;2023-01-31T10:48:30;100119.91;;;6.11;56.82
60061;BME280;45933;51.336;12.612;2023-01-31T10:56:34;100090.75;;;6.24;56.31
60061;BME280;45933;51.336;12.612;2023-01-31T10:59:07;100101.16;;;6.27;56.15
60061;BME280;45933;51.336;12.612;2023-01-31T11:01:35;100089.09;;;6.33;55.93
60061;BME280;45933;51.336;12.612;2023-01-31T11:04:01;100081.38;;;6.34;56.05
60061;BME280;45933;51.336;12.612;2023-01-31T11:06:26;100072.75;;;6.35;55.54
60061;BME280;45933;51.336;12.612;2023-01-31T11:08:56;100070.09;;;6.27;55.87
60061;BME280;45933;51.336;12.612;2023-01-31T11:11:24;100066.72;;;6.35;55.52
60061;BME280;45933;51.336;12.612;2023-01-31T11:14:02;100081.28;;;6.26;55.62
60061;BME280;45933;51.336;12.612;2023-01-31T11:16:30;100063.22;;;6.31;55.69
60061;BME280;45933;51.336;12.612;2023-01-31T11:19:00;100059.75;;;6.27;56.01
60061;BME280;45933;51.336;12.612;2023-01-31T11:21:32;100046.00;;;6.35;55.95
60061;BME280;45933;51.336;12.612;2023-01-31T11:24:04;100045.03;;;6.26;56.10
60061;BME280;45933;51.336;12.612;2023-01-31T11:26:37;100037.38;;;6.36;56.17
60061;BME280;45933;51.336;12.612;2023-01-31T11:29:27;100049.53;;;6.41;56.37
60061;BME280;45933;51.336;12.612;2023-01-31T11:31:54;100033.91;;;6.34;56.01
60061;BME280;45933;51.336;12.612;2023-01-31T11:34:25;100033.75;;;6.21;56.19
60061;BME280;45933;51.336;12.612;2023-01-31T11:36:51;100023.50;;;6.29;56.27
60061;BME280;45933;51.336;12.612;2023-01-31T11:39:23;100006.19;;;6.25;56.21
60061;BME280;45933;51.336;12.612;2023-01-31T11:41:49;99996.75;;;6.30;56.43
60061;BME280;45933;51.336;12.612;2023-01-31T11:44:17;100002.75;;;6.26;56.56
60061;BME280;45933;51.336;12.612;2023-01-31T11:46:49;100017.34;;;6.19;56.44
60061;BME280;45933;51.336;12.612;2023-01-31T11:49:34;100019.09;;;6.19;56.95
60061;BME280;45933;51.336;12.612;2023-01-31T11:52:12;99986.28;;;6.18;57.50
60061;BME280;45933;51.336;12.612;2023-01-31T11:54:40;99982.03;;;6.23;56.97
60061;BME280;45933;51.336;12.612;2023-01-31T11:57:22;99982.00;;;6.21;56.90
60061;BME280;45933;51.336;12.612;2023-01-31T11:59:51;99969.09;;;6.23;57.80
60061;BME280;45933;51.336;12.612;2023-01-31T12:02:33;99964.75;;;6.22;58.03
60061;BME280;45933;51.336;12.612;2023-01-31T12:04:59;99975.72;;;5.99;58.43
60061;BME280;45933;51.336;12.612;2023-01-31T12:07:31;99966.28;;;6.05;58.23
60061;BME280;45933;51.336;12.612;2023-01-31T12:10:24;99942.13;;;6.04;58.46
60061;BME280;45933;51.336;12.612;2023-01-31T12:12:51;99944.66;;;5.96;57.93
60061;BME280;45933;51.336;12.612;2023-01-31T12:15:16;99936.75;;;5.89;58.79
60061;BME280;45933;51.336;12.612;2023-01-31T12:17:44;99935.28;;;6.09;58.60
60061;BME280;45933;51.336;12.612;2023-01-31T12:20:38;99914.59;;;6.08;59.27
60061;BME280;45933;51.336;12.612;2023-01-31T12:34:20;99897.38;;;6.16;59.02
60061;BME280;45933;51.336;12.612;2023-01-31T12:42:58;99894.50;;;5.87;59.73
60061;BME280;45933;51.336;12.612;2023-01-31T12:45:43;99885.22;;;6.04;59.97
60061;BME280;45933;51.336;12.612;2023-01-31T12:48:35;99875.72;;;6.03;59.99
60061;BME280;45933;51.336;12.612;2023-01-31T12:51:28;99883.34;;;5.91;60.18
60061;BME280;45933;51.336;12.612;2023-01-31T13:08:18;99825.66;;;5.99;60.84
60061;BME280;45933;51.336;12.612;2023-01-31T13:10:54;99840.19;;;5.90;60.54
60061;BME280;45933;51.336;12.612;2023-01-31T13:13:35;99820.44;;;5.95;60.71
60061;BME280;45933;51.336;12.612;2023-01-31T13:16:12;99826.50;;;6.00;60.28
60061;BME280;45933;51.336;12.612;2023-01-31T13:18:39;99818.63;;;5.88;60.44
60061;BME280;45933;51.336;12.612;2023-01-31T13:21:12;99832.38;;;5.84;60.51
60061;BME280;45933;51.336;12.612;2023-01-31T13:23:42;99822.19;;;5.96;60.28
60061;BME280;45933;51.336;12.612;2023-01-31T13:26:30;99810.94;;;5.94;60.32
60061;BME280;45933;51.336;12.612;2023-01-31T13:29:06;99808.28;;;5.88;60.39
60061;BME280;45933;51.336;12.612;2023-01-31T13:31:44;99783.38;;;5.97;60.18
60061;BME280;45933;51.336;12.612;2023-01-31T13:34:22;99772.00;;;5.83;60.25
60061;BME280;45933;51.336;12.612;2023-01-31T13:37:06;99773.91;;;5.98;60.25
60061;BME280;45933;51.336;12.612;2023-01-31T13:39:46;99797.16;;;5.95;60.44
60061;BME280;45933;51.336;12.612;2023-01-31T13:42:14;99807.50;;;5.92;60.43
60061;BME280;45933;51.336;12.612;2023-01-31T13:44:41;99781.50;;;5.83;60.82
60061;BME280;45933;51.336;12.612;2023-01-31T13:47:28;99789.44;;;5.98;60.22
60061;BME280;45933;51.336;12.612;2023-01-31T13:50:01;99785.06;;;5.94;60.04
60061;BME280;45933;51.336;12.612;2023-01-31T13:52:32;99807.50;;;5.93;60.45
60061;BME280;45933;51.336;12.612;2023-01-31T13:55:02;99792.81;;;5.92;60.04
60061;BME280;45933;51.336;12.612;2023-01-31T13:57:32;99785.97;;;5.97;60.37
60061;BME280;45933;51.336;12.612;2023-01-31T14:00:24;99775.47;;;5.82;60.57
60061;BME280;45933;51.336;12.612;2023-01-31T14:03:15;99807.59;;;6.04;59.91
60061;BME280;45933;51.336;12.612;2023-01-31T14:08:30;99783.44;;;6.03;60.29
60061;BME280;45933;51.336;12.612;2023-01-31T14:13:43;99783.38;;;6.00;59.55
60061;BME280;45933;51.336;12.612;2023-01-31T14:16:34;99779.97;;;6.05;59.56
60061;BME280;45933;51.336;12.612;2023-01-31T14:19:02;99780.75;;;5.91;59.86
60061;BME280;45933;51.336;12.612;2023-01-31T14:23:55;99754.94;;;5.97;59.67